Time;durP1;ratioP1;P1;durP2;ratioP2;P2;SDS_P1;SDS_P2;PMS_P1;PMS_P2;Temp;Humidity;BMP_temperature;BMP_pressure;BME280_temperature;BME280_humidity;BME280_pressure;Samples;Min_cycle;Max_cycle;Signal;HPM_P1;HPM_P2
2021/08/31 00:01:24;;;;;;;25.23;22.87;;;14.90;99.90;;;;;;4914174;29;20299;-79
2021/08/31 00:03:50;;;;;;;24.53;22.20;;;14.90;99.90;;;;;;4910640;29;20225;-79
2021/08/31 00:06:17;;;;;;;25.27;22.77;;;14.90;99.90;;;;;;4909489;29;20213;-79
2021/08/31 00:08:44;;;;;;;23.80;21.70;;;14.90;99.90;;;;;;4910932;29;20213;-79
2021/08/31 00:11:11;;;;;;;25.87;23.57;;;14.90;99.90;;;;;;4917005;29;20636;-79
2021/08/31 00:13:39;;;;;;;25.13;22.67;;;14.90;99.90;;;;;;4921912;29;20255;-79
2021/08/31 00:16:06;;;;;;;26.43;23.83;;;14.90;99.90;;;;;;4931237;29;20205;-79
2021/08/31 00:18:33;;;;;;;25.77;23.47;;;14.90;99.90;;;;;;4925267;29;20216;-79
2021/08/31 00:21:00;;;;;;;25.03;22.63;;;14.90;99.90;;;;;;4928570;29;20287;-79
2021/08/31 00:23:26;;;;;;;24.80;22.33;;;14.90;99.90;;;;;;4929928;29;20221;-79
2021/08/31 00:25:53;;;;;;;24.43;22.23;;;14.90;99.90;;;;;;4916537;29;20204;-79
2021/08/31 00:28:20;;;;;;;24.03;21.87;;;14.90;99.90;;;;;;4924232;29;20196;-79
2021/08/31 00:30:49;;;;;;;23.87;21.67;;;14.80;99.90;;;;;;4926600;29;20205;-79
2021/08/31 00:33:15;;;;;;;23.57;21.50;;;14.80;99.90;;;;;;4929290;29;20196;-79
2021/08/31 00:35:42;;;;;;;25.63;23.23;;;14.80;99.90;;;;;;4925353;29;20229;-79
2021/08/31 00:38:09;;;;;;;24.27;22.07;;;14.80;99.90;;;;;;4922146;29;20201;-79
2021/08/31 00:40:36;;;;;;;24.17;22.00;;;14.80;99.90;;;;;;4923410;29;20261;-79
2021/08/31 00:43:03;;;;;;;24.47;22.27;;;14.80;99.90;;;;;;4922820;29;20222;-79
2021/08/31 00:45:30;;;;;;;25.73;23.40;;;14.80;99.90;;;;;;4924947;29;20223;-78
2021/08/31 00:47:59;;;;;;;24.63;22.23;;;14.80;99.90;;;;;;4941709;29;20296;-79
2021/08/31 00:50:26;;;;;;;24.13;22.03;;;14.70;99.90;;;;;;4925171;29;20247;-79
2021/08/31 00:52:53;;;;;;;24.50;21.90;;;14.70;99.90;;;;;;4926335;29;20212;-79
2021/08/31 00:55:21;;;;;;;21.83;19.93;;;14.70;99.90;;;;;;4921086;29;20224;-78
2021/08/31 00:57:48;;;;;;;22.13;20.17;;;14.70;99.90;;;;;;4918651;29;20248;-78
2021/08/31 01:00:15;;;;;;;22.23;20.23;;;14.70;99.90;;;;;;4919779;29;20650;-79
2021/08/31 01:02:44;;;;;;;22.00;20.10;;;14.70;99.90;;;;;;4921151;29;20649;-78
2021/08/31 01:05:13;;;;;;;21.33;19.53;;;14.70;99.90;;;;;;4921292;29;20216;-79
2021/08/31 01:07:41;;;;;;;22.67;20.50;;;14.70;99.90;;;;;;4923752;29;20240;-79
2021/08/31 01:10:09;;;;;;;22.53;20.53;;;14.70;99.90;;;;;;4923677;29;20216;-79
2021/08/31 01:12:37;;;;;;;22.60;20.60;;;14.70;99.90;;;;;;4921305;29;20204;-79
2021/08/31 01:15:04;;;;;;;22.77;20.50;;;14.70;99.90;;;;;;4923280;29;20322;-79
2021/08/31 01:17:32;;;;;;;22.40;20.40;;;14.70;99.90;;;;;;4916918;29;20688;-79
2021/08/31 01:19:59;;;;;;;22.93;20.87;;;14.70;99.90;;;;;;4919332;29;20208;-80
2021/08/31 01:22:28;;;;;;;22.13;20.23;;;14.70;99.90;;;;;;4916999;29;20208;-79
2021/08/31 01:24:57;;;;;;;23.60;21.47;;;14.70;99.90;;;;;;4917284;29;20231;-79
2021/08/31 01:27:25;;;;;;;21.27;19.47;;;14.70;99.90;;;;;;4910538;29;20264;-79
2021/08/31 01:29:52;;;;;;;22.03;20.13;;;14.70;99.90;;;;;;4920864;29;20200;-79
2021/08/31 01:32:19;;;;;;;21.13;19.40;;;14.60;99.90;;;;;;4918011;29;20531;-79
2021/08/31 01:34:46;;;;;;;22.67;20.83;;;14.60;99.90;;;;;;4909401;29;20233;-79
2021/08/31 01:37:13;;;;;;;21.30;19.50;;;14.60;99.90;;;;;;4907313;29;20586;-79
2021/08/31 01:39:40;;;;;;;22.23;20.43;;;14.60;99.90;;;;;;4914974;29;20223;-78
2021/08/31 01:42:09;;;;;;;22.07;20.17;;;14.60;99.90;;;;;;4913747;29;20217;-78
2021/08/31 01:44:36;;;;;;;21.70;19.97;;;14.60;99.90;;;;;;4910117;29;20225;-79
2021/08/31 01:47:03;;;;;;;22.40;20.50;;;14.60;99.90;;;;;;4911474;29;20203;-79
2021/08/31 01:49:30;;;;;;;21.77;19.97;;;14.60;99.90;;;;;;4931839;29;20605;-78
2021/08/31 01:51:57;;;;;;;22.33;20.37;;;14.50;99.90;;;;;;4916460;29;20211;-79
2021/08/31 01:54:24;;;;;;;20.83;19.13;;;14.50;99.90;;;;;;4916113;29;20638;-79
2021/08/31 01:56:50;;;;;;;21.63;19.73;;;14.50;99.90;;;;;;4916191;29;20263;-79
2021/08/31 01:59:18;;;;;;;21.67;19.97;;;14.40;99.90;;;;;;4913318;29;20279;-79
2021/08/31 02:01:45;;;;;;;22.10;20.27;;;14.40;99.90;;;;;;4917229;29;20207;-79
2021/08/31 02:04:12;;;;;;;22.13;20.17;;;14.40;99.90;;;;;;4910503;29;20243;-79
2021/08/31 02:06:39;;;;;;;22.80;20.73;;;14.50;99.90;;;;;;4916036;29;20212;-79
2021/08/31 02:09:06;;;;;;;22.03;20.23;;;14.50;99.90;;;;;;4911782;29;20205;-79
2021/08/31 02:11:32;;;;;;;23.77;21.70;;;14.50;99.90;;;;;;4911648;29;20205;-79
2021/08/31 02:13:59;;;;;;;24.60;22.40;;;14.50;99.90;;;;;;4914722;29;20227;-79
2021/08/31 02:16:27;;;;;;;22.07;20.23;;;14.50;99.90;;;;;;4912900;29;20264;-79
2021/08/31 02:18:54;;;;;;;22.13;20.23;;;14.50;99.90;;;;;;4933029;29;20215;-79
2021/08/31 02:21:21;;;;;;;21.80;20.00;;;14.50;99.90;;;;;;4911317;29;20254;-79
2021/08/31 02:23:48;;;;;;;21.23;19.33;;;14.60;99.90;;;;;;4912889;29;20247;-79
2021/08/31 02:26:15;;;;;;;22.20;20.20;;;14.50;99.90;;;;;;4914837;29;20712;-79
2021/08/31 02:28:41;;;;;;;22.90;21.00;;;14.60;99.90;;;;;;4918268;29;20259;-79
2021/08/31 02:31:08;;;;;;;22.13;20.27;;;14.60;99.90;;;;;;4930618;29;20210;-81
2021/08/31 02:33:36;;;;;;;21.80;20.00;;;14.60;99.90;;;;;;4915325;29;20287;-79
2021/08/31 02:36:03;;;;;;;23.73;21.40;;;14.60;99.90;;;;;;4912809;29;20211;-79
2021/08/31 02:38:31;;;;;;;23.60;21.70;;;14.60;99.90;;;;;;4911999;29;20219;-79
2021/08/31 02:40:57;;;;;;;22.33;20.53;;;14.60;99.90;;;;;;4915771;29;20207;-77
2021/08/31 02:43:24;;;;;;;22.23;20.33;;;14.60;99.90;;;;;;4921781;29;20218;-78
2021/08/31 02:45:51;;;;;;;21.90;19.97;;;14.60;99.90;;;;;;4920940;29;20210;-77
2021/08/31 02:48:18;;;;;;;22.63;20.83;;;14.60;99.90;;;;;;4913433;29;20212;-77
2021/08/31 02:50:46;;;;;;;22.80;20.97;;;14.60;99.90;;;;;;4915390;29;20758;-77
2021/08/31 02:53:13;;;;;;;21.73;19.83;;;14.60;99.90;;;;;;4927250;29;20227;-77
2021/08/31 02:55:40;;;;;;;24.23;22.00;;;14.60;99.90;;;;;;4913689;29;20345;-77
2021/08/31 02:58:06;;;;;;;22.27;20.40;;;14.60;99.90;;;;;;4909108;29;20196;-78
2021/08/31 03:00:36;;;;;;;22.60;20.60;;;14.60;99.90;;;;;;4916612;29;20696;-77
2021/08/31 03:03:03;;;;;;;22.47;20.47;;;14.60;99.90;;;;;;4914521;29;20211;-77
2021/08/31 03:05:30;;;;;;;23.17;21.37;;;14.60;99.90;;;;;;4913053;29;20224;-77
2021/08/31 03:07:58;;;;;;;22.67;20.87;;;14.60;99.90;;;;;;4916574;29;20203;-76
2021/08/31 03:10:25;;;;;;;20.43;18.83;;;14.60;99.90;;;;;;4911229;29;20208;-77
2021/08/31 03:12:51;;;;;;;22.70;20.70;;;14.60;99.90;;;;;;4917223;29;20605;-77
2021/08/31 03:15:18;;;;;;;23.90;21.70;;;14.60;99.90;;;;;;4983826;23;20250;-75
2021/08/31 03:17:46;;;;;;;22.17;20.47;;;14.60;99.90;;;;;;4984097;28;20684;-76
2021/08/31 03:20:13;;;;;;;23.80;21.77;;;14.60;99.90;;;;;;4982951;28;20650;-76
2021/08/31 03:22:40;;;;;;;23.67;21.57;;;14.60;99.90;;;;;;4982813;28;20233;-76
2021/08/31 03:25:09;;;;;;;23.57;21.67;;;14.50;99.90;;;;;;4986697;28;20221;-77
2021/08/31 03:27:36;;;;;;;23.43;21.53;;;14.50;99.90;;;;;;4988802;28;20200;-76
2021/08/31 03:30:04;;;;;;;22.57;20.67;;;14.50;99.90;;;;;;4985813;28;20197;-76
2021/08/31 03:32:31;;;;;;;22.23;20.33;;;14.50;99.90;;;;;;4983277;28;20662;-76
2021/08/31 03:34:58;;;;;;;22.43;20.60;;;14.50;99.90;;;;;;4985520;28;20248;-76
2021/08/31 03:37:25;;;;;;;21.23;19.53;;;14.50;99.90;;;;;;4990933;28;20197;-76
2021/08/31 03:39:52;;;;;;;20.83;19.17;;;14.50;99.90;;;;;;4978977;28;20264;-77
2021/08/31 03:42:20;;;;;;;23.20;21.13;;;14.50;99.90;;;;;;4989037;28;20201;-76
2021/08/31 03:44:47;;;;;;;23.13;21.23;;;14.50;99.90;;;;;;4985525;28;20225;-80
2021/08/31 03:47:14;;;;;;;21.93;20.03;;;14.50;99.90;;;;;;4992584;28;20209;-79
2021/08/31 03:49:40;;;;;;;22.97;21.03;;;14.50;99.90;;;;;;4994316;28;20257;-80
2021/08/31 03:52:07;;;;;;;24.43;22.43;;;14.60;99.90;;;;;;4993804;28;20669;-79
2021/08/31 03:54:34;;;;;;;22.63;20.80;;;14.60;99.90;;;;;;4989795;28;20224;-78
2021/08/31 03:57:02;;;;;;;22.30;20.43;;;14.60;99.90;;;;;;4998408;28;20201;-81
2021/08/31 03:59:30;;;;;;;22.73;20.90;;;14.60;99.90;;;;;;4999329;28;20621;-78
2021/08/31 04:01:57;;;;;;;23.83;21.83;;;14.60;99.90;;;;;;4995161;28;20205;-80
2021/08/31 04:04:24;;;;;;;24.17;22.17;;;14.60;99.90;;;;;;4987188;28;20657;-80
2021/08/31 04:06:51;;;;;;;23.47;21.47;;;14.60;99.90;;;;;;4984564;28;20248;-79
2021/08/31 04:09:17;;;;;;;23.97;21.97;;;14.50;99.90;;;;;;4986030;28;20264;-79
2021/08/31 04:11:44;;;;;;;24.37;22.37;;;14.60;99.90;;;;;;4994898;28;20209;-78
2021/08/31 04:14:11;;;;;;;23.57;21.53;;;14.50;99.90;;;;;;4991165;28;20289;-79
2021/08/31 04:16:39;;;;;;;23.67;21.77;;;14.60;99.90;;;;;;4994233;28;20296;-79
2021/08/31 04:19:06;;;;;;;24.33;22.13;;;14.50;99.90;;;;;;4990335;28;20705;-79
2021/08/31 04:21:33;;;;;;;25.30;23.10;;;14.50;99.90;;;;;;4989773;28;20251;-77
2021/08/31 04:23:59;;;;;;;25.13;22.87;;;14.50;99.90;;;;;;4998926;28;20234;-79
2021/08/31 04:26:27;;;;;;;26.13;23.77;;;14.50;99.90;;;;;;4998078;28;20251;-80
2021/08/31 04:28:54;;;;;;;24.93;22.73;;;14.50;99.90;;;;;;4994378;28;20620;-79
2021/08/31 04:31:22;;;;;;;24.67;22.53;;;14.50;99.90;;;;;;4991835;28;20201;-79
2021/08/31 04:33:50;;;;;;;26.23;23.67;;;14.50;99.90;;;;;;4990689;28;20229;-79
2021/08/31 04:36:17;;;;;;;24.73;22.63;;;14.50;99.90;;;;;;4996287;28;20201;-79
2021/08/31 04:38:44;;;;;;;23.70;21.70;;;14.40;99.90;;;;;;4984819;28;20201;-77
2021/08/31 04:41:11;;;;;;;26.73;24.43;;;14.40;99.90;;;;;;4989381;28;20198;-78
2021/08/31 04:43:38;;;;;;;25.23;23.03;;;14.40;99.90;;;;;;4996287;28;20213;-76
2021/08/31 04:46:05;;;;;;;24.73;22.63;;;14.50;99.90;;;;;;4994480;28;20720;-76
2021/08/31 04:48:31;;;;;;;25.80;23.57;;;14.50;99.90;;;;;;4986606;28;20260;-76
2021/08/31 04:51:00;;;;;;;24.83;22.83;;;14.50;99.90;;;;;;4983649;28;20209;-76
2021/08/31 04:53:26;;;;;;;26.00;23.70;;;14.50;99.90;;;;;;4979089;28;20241;-76
2021/08/31 04:55:53;;;;;;;25.60;23.30;;;14.50;99.90;;;;;;4994420;28;20236;-79
2021/08/31 04:58:20;;;;;;;24.80;22.80;;;14.50;99.90;;;;;;4992212;28;20213;-80
2021/08/31 05:00:47;;;;;;;26.33;24.10;;;14.50;99.90;;;;;;4992213;28;20231;-78
2021/08/31 05:03:14;;;;;;;26.03;23.70;;;14.50;99.90;;;;;;4990027;28;20272;-78
2021/08/31 05:05:42;;;;;;;25.43;23.33;;;14.60;99.90;;;;;;4994644;28;20835;-77
2021/08/31 05:08:10;;;;;;;26.03;23.83;;;14.60;99.90;;;;;;5000253;28;20189;-78
2021/08/31 05:10:37;;;;;;;25.03;22.80;;;14.60;99.90;;;;;;4999929;28;20186;-78
2021/08/31 05:13:04;;;;;;;25.90;23.60;;;14.70;99.90;;;;;;4993339;28;20195;-77
2021/08/31 05:15:32;;;;;;;24.20;22.20;;;14.60;99.90;;;;;;4986802;28;20236;-78
2021/08/31 05:18:00;;;;;;;22.67;20.87;;;14.60;99.90;;;;;;4992247;28;20193;-80
2021/08/31 05:20:28;;;;;;;25.20;23.10;;;14.60;99.90;;;;;;4995932;28;20197;-78
2021/08/31 05:22:55;;;;;;;25.43;23.33;;;14.60;99.90;;;;;;4985604;28;20201;-79
2021/08/31 05:25:23;;;;;;;24.10;22.20;;;14.60;99.90;;;;;;4987551;28;20226;-78
2021/08/31 05:27:50;;;;;;;24.73;22.73;;;14.60;99.90;;;;;;4985079;28;20206;-79
2021/08/31 05:30:17;;;;;;;24.67;22.67;;;14.60;99.90;;;;;;4981700;28;20264;-80
2021/08/31 05:32:44;;;;;;;24.80;22.90;;;14.60;99.90;;;;;;4982046;28;20259;-78
2021/08/31 05:35:11;;;;;;;24.00;22.20;;;14.60;99.90;;;;;;4983734;28;20741;-79
2021/08/31 05:37:38;;;;;;;25.93;23.73;;;14.60;99.90;;;;;;4985442;28;20260;-79
2021/08/31 05:40:07;;;;;;;25.30;23.03;;;14.60;99.90;;;;;;4982716;28;20245;-79
2021/08/31 05:42:35;;;;;;;24.73;22.77;;;14.70;99.90;;;;;;4990497;28;20205;-79
2021/08/31 05:45:02;;;;;;;24.70;22.70;;;14.70;99.90;;;;;;4982773;28;20276;-79
2021/08/31 05:47:29;;;;;;;26.73;24.43;;;14.70;99.90;;;;;;4982883;28;20607;-79
2021/08/31 05:49:56;;;;;;;24.73;22.73;;;14.70;99.90;;;;;;4982179;28;20194;-79
2021/08/31 05:52:23;;;;;;;24.77;22.77;;;14.70;99.90;;;;;;4981226;28;20210;-79
2021/08/31 05:54:50;;;;;;;26.60;24.40;;;14.70;99.90;;;;;;4989801;28;20217;-78
2021/08/31 05:57:17;;;;;;;25.57;23.47;;;14.70;99.90;;;;;;4984020;28;20257;-78
2021/08/31 05:59:45;;;;;;;23.83;21.77;;;14.70;99.90;;;;;;4993643;28;20205;-79
2021/08/31 06:02:12;;;;;;;23.83;21.93;;;14.70;99.90;;;;;;4987690;28;20205;-80
2021/08/31 06:04:40;;;;;;;26.80;24.60;;;14.70;99.90;;;;;;4985107;28;20604;-80
2021/08/31 06:07:07;;;;;;;26.00;23.90;;;14.70;99.90;;;;;;4990046;28;20255;-79
2021/08/31 06:09:36;;;;;;;24.73;22.63;;;14.70;99.90;;;;;;4993092;28;21521;-78
2021/08/31 06:12:04;;;;;;;23.97;22.10;;;14.70;99.90;;;;;;4984495;28;20202;-78
2021/08/31 06:14:30;;;;;;;24.73;22.63;;;14.70;99.90;;;;;;4989490;28;20249;-79
2021/08/31 06:16:58;;;;;;;24.03;22.13;;;14.80;99.90;;;;;;4992046;28;20202;-80
2021/08/31 06:19:26;;;;;;;24.80;22.80;;;14.80;99.90;;;;;;4996845;28;20201;-78
2021/08/31 06:21:52;;;;;;;23.93;21.93;;;14.80;99.90;;;;;;4997439;28;20268;-77
2021/08/31 06:24:19;;;;;;;25.37;23.23;;;14.90;99.90;;;;;;4997119;28;20239;-77
2021/08/31 06:26:46;;;;;;;25.10;23.00;;;14.90;99.90;;;;;;4998767;28;20196;-77
2021/08/31 06:29:15;;;;;;;25.10;23.10;;;14.90;99.90;;;;;;4991574;28;20216;-77
2021/08/31 06:31:42;;;;;;;25.63;23.43;;;15.00;99.90;;;;;;4994557;28;20201;-76
2021/08/31 06:34:10;;;;;;;26.37;24.17;;;15.00;99.90;;;;;;4993996;28;20225;-77
2021/08/31 06:36:37;;;;;;;25.17;23.17;;;14.90;99.90;;;;;;4993419;28;20197;-77
2021/08/31 06:39:04;;;;;;;26.57;24.37;;;14.90;99.90;;;;;;4997416;28;20212;-76
2021/08/31 06:41:31;;;;;;;26.00;23.60;;;14.90;99.90;;;;;;4988654;28;20895;-79
2021/08/31 06:43:57;;;;;;;25.80;23.70;;;15.00;99.90;;;;;;4983587;28;20209;-79
2021/08/31 06:46:24;;;;;;;24.07;21.97;;;14.90;99.90;;;;;;4988017;28;20201;-79
2021/08/31 06:48:51;;;;;;;23.23;21.33;;;15.00;99.90;;;;;;4982078;28;20197;-80
2021/08/31 06:51:19;;;;;;;25.63;23.47;;;15.00;99.90;;;;;;4989185;28;20201;-80
2021/08/31 06:53:46;;;;;;;24.77;22.70;;;14.90;99.90;;;;;;4990691;28;20247;-79
2021/08/31 06:56:13;;;;;;;26.17;23.93;;;15.00;99.90;;;;;;4986432;28;20202;-79
2021/08/31 06:58:39;;;;;;;23.50;21.70;;;14.90;99.90;;;;;;4989734;28;20193;-79
2021/08/31 07:01:06;;;;;;;23.33;21.43;;;15.00;99.90;;;;;;4985667;28;20244;-78
2021/08/31 07:03:33;;;;;;;23.63;21.73;;;15.00;99.90;;;;;;4982172;28;20209;-79
2021/08/31 07:06:00;;;;;;;22.80;21.00;;;15.00;99.90;;;;;;4993656;28;20244;-79
2021/08/31 07:08:28;;;;;;;22.50;20.80;;;15.10;99.90;;;;;;4989177;28;20256;-80
2021/08/31 07:10:56;;;;;;;21.97;20.13;;;15.30;99.90;;;;;;4990198;28;20205;-79
2021/08/31 07:13:23;;;;;;;22.47;20.77;;;15.40;99.90;;;;;;4992114;28;20205;-79
2021/08/31 07:15:50;;;;;;;22.60;20.27;;;15.40;99.90;;;;;;4981111;28;20233;-79
2021/08/31 07:18:17;;;;;;;21.93;20.13;;;15.40;99.90;;;;;;4990555;28;20205;-79
2021/08/31 07:20:44;;;;;;;21.93;20.23;;;15.40;99.90;;;;;;4995043;28;20193;-79
2021/08/31 07:23:13;;;;;;;16.20;14.80;;;15.50;99.90;;;;;;4992889;28;20217;-77
2021/08/31 07:25:42;;;;;;;15.33;14.03;;;15.50;99.90;;;;;;4992432;28;20245;-79
2021/08/31 07:28:09;;;;;;;15.17;13.77;;;15.60;99.90;;;;;;4993183;28;20193;-79
2021/08/31 07:30:35;;;;;;;13.17;11.97;;;15.60;99.90;;;;;;4991040;28;20225;-80
2021/08/31 07:33:05;;;;;;;11.60;10.50;;;15.70;99.90;;;;;;4983730;28;20619;-77
2021/08/31 07:35:32;;;;;;;11.60;10.40;;;15.70;99.90;;;;;;4983093;28;20224;-77
2021/08/31 07:37:58;;;;;;;12.63;11.00;;;15.80;99.90;;;;;;4989550;28;20658;-79
2021/08/31 07:40:26;;;;;;;11.40;10.23;;;16.00;99.90;;;;;;4991908;28;20634;-79
2021/08/31 07:42:54;;;;;;;11.67;10.47;;;16.20;99.90;;;;;;4995987;28;20253;-79
2021/08/31 07:45:21;;;;;;;11.23;9.87;;;16.20;99.90;;;;;;4993799;28;20238;-78
2021/08/31 07:47:48;;;;;;;12.27;10.90;;;16.30;99.90;;;;;;4995139;28;20205;-78
2021/08/31 07:50:15;;;;;;;11.30;10.10;;;16.30;99.90;;;;;;4989586;28;20198;-79
2021/08/31 07:52:42;;;;;;;10.93;9.67;;;16.50;99.90;;;;;;4985302;28;20544;-79
2021/08/31 07:55:11;;;;;;;14.10;12.80;;;16.80;99.90;;;;;;4982239;28;20270;-79
2021/08/31 07:57:38;;;;;;;13.43;12.07;;;17.20;99.90;;;;;;4983848;28;20207;-77
2021/08/31 08:00:09;;;;;;;11.77;10.40;;;17.40;99.90;;;;;;4988656;28;20664;-79
2021/08/31 08:02:36;;;;;;;13.90;12.70;;;17.60;99.90;;;;;;4993908;28;20196;-78
2021/08/31 08:05:05;;;;;;;15.23;13.93;;;17.70;99.90;;;;;;4990426;28;20231;-78
2021/08/31 08:07:32;;;;;;;8.97;7.73;;;17.70;99.90;;;;;;4988747;28;20256;-79
2021/08/31 08:09:59;;;;;;;9.90;8.60;;;17.60;99.90;;;;;;4991033;28;20231;-79
2021/08/31 08:12:26;;;;;;;19.20;17.70;;;17.40;99.90;;;;;;4987704;28;20216;-80
2021/08/31 08:14:53;;;;;;;19.20;17.80;;;17.30;99.90;;;;;;4982599;28;20225;-79
2021/08/31 08:17:23;;;;;;;19.37;18.00;;;17.10;99.90;;;;;;4984231;28;20196;-79
2021/08/31 08:19:51;;;;;;;9.10;8.13;;;17.00;99.90;;;;;;4986368;28;20196;-79
2021/08/31 08:22:18;;;;;;;17.00;15.80;;;17.10;99.90;;;;;;4987470;28;20208;-78
2021/08/31 08:24:45;;;;;;;19.10;17.67;;;17.10;99.90;;;;;;4985349;28;20234;-79
2021/08/31 08:27:15;;;;;;;17.40;16.20;;;17.10;99.90;;;;;;4976620;28;20232;-78
2021/08/31 08:29:42;;;;;;;18.10;16.80;;;17.20;99.90;;;;;;4985275;28;20263;-79
2021/08/31 08:32:11;;;;;;;9.70;8.70;;;17.30;99.90;;;;;;4989686;28;20258;-78
2021/08/31 08:34:40;;;;;;;8.20;7.30;;;17.40;99.90;;;;;;4992039;28;20229;-79
2021/08/31 08:37:07;;;;;;;8.40;7.50;;;17.70;99.90;;;;;;5007990;28;20253;-79
2021/08/31 08:39:35;;;;;;;18.10;16.80;;;17.80;99.90;;;;;;4987422;28;20216;-80
2021/08/31 08:42:04;;;;;;;17.50;16.30;;;18.10;99.90;;;;;;4991667;28;20200;-77
2021/08/31 08:44:31;;;;;;;16.10;15.00;;;18.70;99.90;;;;;;4996741;28;20701;-79
2021/08/31 08:46:58;;;;;;;15.33;14.03;;;19.30;99.90;;;;;;4999095;28;20205;-78
2021/08/31 08:49:25;;;;;;;16.97;15.77;;;19.50;99.90;;;;;;4995037;28;20229;-78
2021/08/31 08:51:56;;;;;;;15.20;14.10;;;19.40;99.90;;;;;;4994710;28;20258;-78
2021/08/31 08:54:23;;;;;;;10.27;9.47;;;19.30;99.90;;;;;;5007335;28;20222;-78
2021/08/31 08:56:51;;;;;;;8.87;8.07;;;19.00;99.90;;;;;;4987851;28;20296;-79
2021/08/31 08:59:18;;;;;;;7.80;6.50;;;18.80;99.90;;;;;;4987376;28;20706;-79
2021/08/31 09:01:47;;;;;;;8.83;8.07;;;18.80;99.90;;;;;;4994117;28;20288;-80
2021/08/31 09:04:16;;;;;;;6.87;6.17;;;18.90;99.90;;;;;;4992728;28;20210;-80
2021/08/31 09:06:43;;;;;;;12.57;11.57;;;19.10;99.90;;;;;;4994418;28;20209;-79
2021/08/31 09:09:12;;;;;;;6.33;5.73;;;19.20;99.90;;;;;;4990813;28;20812;-79
2021/08/31 09:11:40;;;;;;;8.07;7.27;;;19.40;99.90;;;;;;4992486;28;20198;-80
2021/08/31 09:14:20;;;;;;;9.07;8.17;;;19.70;99.90;;;;;;4993011;28;20250;-78
2021/08/31 09:16:49;;;;;;;6.80;6.10;;;20.10;99.90;;;;;;4990891;28;20203;-79
2021/08/31 09:19:16;;;;;;;11.83;10.83;;;20.20;99.90;;;;;;4991934;28;20211;-78
2021/08/31 09:21:46;;;;;;;17.17;16.10;;;19.90;99.90;;;;;;4991633;28;20664;-79
2021/08/31 09:24:15;;;;;;;15.57;14.57;;;19.50;99.90;;;;;;4996993;28;20232;-79
2021/08/31 09:26:44;;;;;;;15.70;14.70;;;19.20;99.90;;;;;;5003059;28;20201;-77
2021/08/31 09:29:17;;;;;;;16.53;15.47;;;19.10;99.90;;;;;;4996442;28;20587;-78
2021/08/31 09:31:46;;;;;;;16.00;15.00;;;18.80;99.90;;;;;;4995895;28;20265;-80
2021/08/31 09:34:32;;;;;;;15.60;14.50;;;18.80;99.90;;;;;;4993058;28;20269;-79
2021/08/31 09:37:27;;;;;;;15.30;14.30;;;18.70;99.90;;;;;;4993762;28;20697;-79
2021/08/31 09:40:05;;;;;;;15.67;14.57;;;18.90;99.90;;;;;;4993907;28;20205;-78
2021/08/31 09:42:32;;;;;;;15.20;14.10;;;19.10;99.90;;;;;;4992730;28;20201;-78
2021/08/31 09:45:03;;;;;;;17.10;15.93;;;19.20;99.90;;;;;;4988269;28;20219;-80
2021/08/31 09:47:35;;;;;;;10.80;9.70;;;20.00;99.90;;;;;;4991424;28;20211;-79
2021/08/31 09:50:03;;;;;;;6.47;5.77;;;20.10;99.90;;;;;;4994434;28;20196;-79
2021/08/31 09:52:30;;;;;;;7.33;6.17;;;20.50;99.90;;;;;;4994101;28;20295;-79
2021/08/31 09:54:57;;;;;;;6.20;5.60;;;21.00;99.90;;;;;;4996045;28;20307;-78
2021/08/31 09:57:34;;;;;;;9.53;8.63;;;20.90;99.90;;;;;;4990121;28;20202;-78
2021/08/31 10:00:04;;;;;;;7.47;6.77;;;20.60;99.90;;;;;;4982537;28;20200;-78
2021/08/31 10:02:31;;;;;;;11.00;9.70;;;20.60;99.90;;;;;;4984937;28;20232;-79
2021/08/31 10:04:58;;;;;;;12.23;11.23;;;20.60;99.90;;;;;;4994442;28;20316;-79
2021/08/31 10:07:25;;;;;;;13.73;12.60;;;20.60;99.90;;;;;;4993840;28;20215;-81
2021/08/31 10:09:53;;;;;;;12.53;11.43;;;20.90;99.90;;;;;;4993824;28;20200;-80
2021/08/31 10:12:23;;;;;;;12.40;11.40;;;21.10;99.90;;;;;;4994466;28;20612;-80
2021/08/31 10:14:54;;;;;;;7.50;6.63;;;21.00;99.90;;;;;;5011249;28;20658;-81
2021/08/31 10:17:24;;;;;;;7.33;6.63;;;21.40;99.90;;;;;;4996610;28;20201;-79
2021/08/31 10:19:53;;;;;;;15.50;14.40;;;21.40;99.90;;;;;;4992876;28;20212;-80
2021/08/31 10:22:21;;;;;;;10.20;9.50;;;21.10;99.90;;;;;;4993940;28;20260;-79
2021/08/31 10:24:49;;;;;;;10.40;9.60;;;21.30;99.90;;;;;;4992336;28;20240;-77
2021/08/31 10:27:36;;;;;;;7.70;6.80;;;21.50;99.90;;;;;;4992158;28;20258;-80
2021/08/31 10:30:35;;;;;;;10.63;9.53;;;21.30;99.90;;;;;;4981070;28;20257;-79
2021/08/31 10:33:04;;;;;;;10.53;9.73;;;21.40;99.90;;;;;;4990997;28;20231;-79
2021/08/31 10:35:54;;;;;;;10.00;9.10;;;21.20;99.90;;;;;;4994231;28;20217;-78
2021/08/31 10:38:40;;;;;;;7.10;6.40;;;20.90;99.90;;;;;;4994078;28;20221;-81
2021/08/31 10:41:41;;;;;;;14.03;13.13;;;20.30;99.90;;;;;;4986350;28;20249;-80
2021/08/31 10:44:08;;;;;;;11.27;10.37;;;20.30;99.90;;;;;;4994993;28;20246;-79
2021/08/31 10:47:12;;;;;;;13.90;13.00;;;20.40;99.90;;;;;;4994479;28;20204;-82
2021/08/31 10:50:12;;;;;;;11.77;10.90;;;20.50;99.90;;;;;;4991957;28;20662;-79
2021/08/31 10:52:41;;;;;;;14.00;12.90;;;20.70;99.90;;;;;;4992724;28;20759;-79
2021/08/31 10:55:44;;;;;;;14.20;13.20;;;20.50;99.90;;;;;;4983915;28;20276;-79
2021/08/31 10:58:37;;;;;;;13.80;12.87;;;20.10;99.90;;;;;;4980747;28;20214;-77
2021/08/31 11:01:14;;;;;;;14.17;13.00;;;19.90;99.90;;;;;;4981198;28;20251;-77
2021/08/31 11:03:42;;;;;;;14.40;13.27;;;19.90;99.90;;;;;;4981513;28;20301;-76
2021/08/31 11:06:25;;;;;;;14.60;13.27;;;19.80;99.90;;;;;;4991983;28;20228;-76
2021/08/31 11:09:12;;;;;;;14.23;13.23;;;19.60;99.90;;;;;;4985758;28;20680;-77
2021/08/31 11:11:40;;;;;;;14.67;13.53;;;19.60;99.90;;;;;;4984205;28;20211;-77
2021/08/31 11:14:08;;;;;;;14.10;13.10;;;19.40;99.90;;;;;;4979601;28;20237;-76
2021/08/31 11:16:37;;;;;;;14.33;13.33;;;19.40;99.90;;;;;;4980927;28;20664;-77
2021/08/31 11:19:21;;;;;;;14.27;13.20;;;19.50;99.90;;;;;;4980608;28;20199;-76
2021/08/31 11:21:49;;;;;;;14.60;13.40;;;19.50;99.90;;;;;;4982944;28;20208;-77
2021/08/31 11:24:15;;;;;;;14.87;13.67;;;19.60;99.90;;;;;;4983885;28;20286;-77
2021/08/31 11:26:42;;;;;;;14.43;13.43;;;19.80;99.90;;;;;;4981732;28;20223;-77
2021/08/31 11:29:10;;;;;;;14.47;13.30;;;19.70;99.90;;;;;;4979979;28;20231;-77
2021/08/31 11:31:38;;;;;;;14.40;13.27;;;19.90;99.90;;;;;;4982260;28;20259;-77
2021/08/31 11:34:11;;;;;;;14.83;13.83;;;19.90;99.90;;;;;;4979709;28;20259;-77
2021/08/31 11:36:39;;;;;;;14.63;13.63;;;19.70;99.90;;;;;;4989175;28;20732;-77
2021/08/31 11:39:09;;;;;;;14.50;13.50;;;19.60;99.90;;;;;;4979534;28;20211;-77
2021/08/31 11:41:37;;;;;;;15.23;14.07;;;19.60;99.90;;;;;;4980974;28;20216;-77
2021/08/31 11:44:10;;;;;;;15.07;13.83;;;19.60;99.90;;;;;;4991531;28;20202;-77
2021/08/31 11:46:39;;;;;;;13.40;12.40;;;19.50;99.90;;;;;;4977775;28;20228;-77
2021/08/31 11:49:11;;;;;;;13.90;12.87;;;19.50;99.90;;;;;;4983493;28;20614;-77
2021/08/31 11:51:39;;;;;;;14.40;13.50;;;19.60;99.90;;;;;;4977026;28;20661;-77
2021/08/31 11:54:08;;;;;;;13.20;12.33;;;19.50;99.90;;;;;;4983738;28;20250;-77
2021/08/31 11:56:35;;;;;;;13.20;12.40;;;19.50;99.90;;;;;;4974845;28;20205;-77
2021/08/31 11:59:02;;;;;;;15.03;12.77;;;19.50;99.90;;;;;;4983988;28;20329;-77
2021/08/31 12:01:30;;;;;;;13.63;12.63;;;19.50;99.90;;;;;;4979959;28;20630;-77
2021/08/31 12:04:12;;;;;;;12.93;12.00;;;19.70;99.90;;;;;;4985890;28;20201;-77
2021/08/31 12:06:41;;;;;;;13.10;12.20;;;19.60;99.90;;;;;;4991669;28;20262;-77
2021/08/31 12:09:09;;;;;;;13.37;12.37;;;19.90;99.90;;;;;;4984031;28;20288;-76
2021/08/31 12:11:36;;;;;;;12.93;12.10;;;20.10;99.90;;;;;;4986169;28;20192;-77
2021/08/31 12:14:02;;;;;;;13.10;12.20;;;20.10;99.90;;;;;;4982663;28;20241;-77
2021/08/31 12:16:29;;;;;;;13.30;12.30;;;20.10;99.90;;;;;;4979644;28;20260;-77
2021/08/31 12:18:56;;;;;;;13.33;12.23;;;20.00;99.90;;;;;;4987054;28;20212;-77
2021/08/31 12:21:25;;;;;;;13.33;12.43;;;20.10;99.90;;;;;;4981694;28;20197;-77
2021/08/31 12:23:54;;;;;;;14.00;12.93;;;20.00;99.90;;;;;;4989430;28;20258;-77
2021/08/31 12:26:33;;;;;;;13.37;12.47;;;19.90;99.90;;;;;;4981609;28;20215;-77
2021/08/31 12:29:03;;;;;;;13.27;12.37;;;19.80;99.90;;;;;;4999124;28;20210;-77
2021/08/31 12:31:30;;;;;;;13.63;12.63;;;19.70;99.90;;;;;;4986102;28;20202;-77
2021/08/31 12:33:57;;;;;;;13.30;12.40;;;19.80;99.90;;;;;;4985773;28;20548;-77
2021/08/31 12:36:32;;;;;;;13.20;12.30;;;19.80;99.90;;;;;;4985946;28;20235;-77